Orrin, North Dakota
Current Conditions -  °F | °C
As of 8:35 AM on Thursday 27 Nov 2014 (Local Time) from KRUG Reporting Station
Broken Clouds Broken Clouds  
Wind Chill: -23°   Ceiling: 2700
Heat Index: -6°   Visibility: 10mi
Dew Point: -9°   Wind: 10mph
Humidity: 84%   Direction: 170°S
Pressure: 30.32"   Gusts: 16mph
Location:  48.09°N, 100.16°W
Report Text: KRUG 271435Z AUTO 17009G14KT 10SM BKN027 M21/M23 A3032 RMK AO2
Loading
Personal Weather Stations






























Interactive Weather Map New forecast layout! Learn more

10-Day Weather Forecast

Advertisements
Track Severe Weather on mobile